Time;durP1;ratioP1;P1;durP2;ratioP2;P2;SDS_P1;SDS_P2;PMS_P1;PMS_P2;Temp;Humidity;BMP_temperature;BMP_pressure;BME280_temperature;BME280_humidity;BME280_pressure;Samples;Min_cycle;Max_cycle;Signal;HPM_P1;HPM_P2
2021/11/15 00:00:09;;;;;;;2.33;1.27;;;;;;;;;;5081131;23;20051;-53
2021/11/15 00:02:26;;;;;;;5.28;1.67;;;;;;;;;;5062192;23;20052;-52
2021/11/15 00:04:38;;;;;;;5.07;1.80;;;;;;;;;;5075257;23;20092;-51
2021/11/15 00:06:44;;;;;;;4.10;1.40;;;;;;;;;;5076225;23;20838;-53
2021/11/15 00:08:49;;;;;;;4.07;2.10;;;;;;;;;;5103087;23;20024;-52
2021/11/15 00:13:22;;;;;;;3.92;1.60;;;;;;;;;;5076676;23;20035;-52
2021/11/15 00:15:33;;;;;;;2.50;1.40;;;;;;;;;;5101049;23;20444;-52
2021/11/15 00:17:45;;;;;;;4.35;1.67;;;;;;;;;;5102851;23;20029;-54
2021/11/15 00:19:47;;;;;;;7.88;1.88;;;;;;;;;;5102411;23;20553;-50
2021/11/15 00:21:54;;;;;;;6.22;2.05;;;;;;;;;;5102314;23;20033;-49
2021/11/15 00:23:57;;;;;;;4.53;1.70;;;;;;;;;;5075666;23;20077;-52
2021/11/15 00:25:59;;;;;;;2.93;1.80;;;;;;;;;;5073736;23;20029;-53
2021/11/15 00:28:01;;;;;;;3.55;1.55;;;;;;;;;;5102986;23;20048;-49
2021/11/15 00:30:13;;;;;;;4.30;2.10;;;;;;;;;;5052479;23;20030;-51
2021/11/15 00:32:39;;;;;;;3.90;1.70;;;;;;;;;;5100333;23;20113;-52
2021/11/15 00:35:03;;;;;;;3.95;2.00;;;;;;;;;;5099073;23;20083;-52
2021/11/15 00:37:08;;;;;;;4.65;2.00;;;;;;;;;;5102003;23;20105;-53
2021/11/15 00:39:19;;;;;;;5.22;2.33;;;;;;;;;;5103315;23;20059;-51
2021/11/15 00:41:24;;;;;;;5.90;2.50;;;;;;;;;;5103828;23;20422;-49
2021/11/15 00:43:32;;;;;;;4.78;1.88;;;;;;;;;;5076599;23;20021;-52
2021/11/15 00:45:35;;;;;;;5.30;2.40;;;;;;;;;;5104980;23;20036;-53
2021/11/15 00:47:56;;;;;;;3.97;1.98;;;;;;;;;;5105614;23;20020;-53
2021/11/15 00:50:02;;;;;;;6.43;2.10;;;;;;;;;;5109450;23;20087;-52
2021/11/15 00:52:19;;;;;;;3.63;1.95;;;;;;;;;;5081121;23;20734;-49
2021/11/15 00:54:24;;;;;;;5.47;2.72;;;;;;;;;;5106319;23;20032;-48
2021/11/15 00:56:30;;;;;;;7.85;4.32;;;;;;;;;;5107875;23;20028;-51
2021/11/15 00:58:58;;;;;;;8.50;4.55;;;;;;;;;;5108515;23;20119;-49
2021/11/15 01:01:03;;;;;;;8.63;4.68;;;;;;;;;;5098811;23;20021;-47
2021/11/15 01:03:09;;;;;;;7.38;4.60;;;;;;;;;;5083191;23;20033;-50
2021/11/15 01:05:18;;;;;;;7.68;4.40;;;;;;;;;;5108255;23;20608;-48
2021/11/15 01:07:26;;;;;;;7.00;3.88;;;;;;;;;;5110525;23;20060;-51
2021/11/15 01:09:40;;;;;;;7.03;3.72;;;;;;;;;;5109228;23;20116;-58
2021/11/15 01:12:05;;;;;;;6.05;3.13;;;;;;;;;;5104399;23;20096;-51
2021/11/15 01:14:16;;;;;;;6.65;3.40;;;;;;;;;;5083535;23;20032;-54
2021/11/15 01:23:52;;;;;;;5.75;3.08;;;;;;;;;;5070944;23;20029;-53
2021/11/15 01:25:57;;;;;;;4.60;2.95;;;;;;;;;;5045184;23;20133;-55
2021/11/15 01:28:00;;;;;;;6.55;2.67;;;;;;;;;;5101412;23;20072;-56
2021/11/15 01:30:21;;;;;;;4.63;2.20;;;;;;;;;;5102325;23;20036;-54
2021/11/15 01:32:26;;;;;;;3.42;2.08;;;;;;;;;;5103125;23;20028;-54
2021/11/15 01:34:31;;;;;;;4.75;2.38;;;;;;;;;;5074693;23;20453;-54
2021/11/15 01:36:36;;;;;;;5.05;2.53;;;;;;;;;;5074778;23;20057;-55
2021/11/15 01:38:38;;;;;;;4.15;2.30;;;;;;;;;;5075190;23;20115;-55
2021/11/15 01:40:41;;;;;;;3.75;1.58;;;;;;;;;;5101257;23;20036;-56
2021/11/15 01:42:53;;;;;;;3.65;2.00;;;;;;;;;;5102178;23;20531;-57
2021/11/15 01:44:58;;;;;;;4.70;1.88;;;;;;;;;;5099973;23;20104;-58
2021/11/15 01:47:06;;;;;;;3.65;1.85;;;;;;;;;;5074073;23;20029;-54
2021/11/15 01:49:09;;;;;;;4.20;1.95;;;;;;;;;;5075318;23;20087;-58
2021/11/15 01:51:14;;;;;;;2.58;1.50;;;;;;;;;;5102328;23;20111;-57
2021/11/15 01:53:20;;;;;;;3.33;1.58;;;;;;;;;;5075475;23;20025;-56
2021/11/15 01:55:42;;;;;;;3.10;1.58;;;;;;;;;;5098867;23;20503;-57
2021/11/15 01:57:56;;;;;;;3.10;1.40;;;;;;;;;;5076835;23;20024;-60
2021/11/15 02:02:28;;;;;;;7.13;1.80;;;;;;;;;;5055453;23;20713;-67
2021/11/15 02:07:19;;;;;;;3.78;1.48;;;;;;;;;;4978017;23;20034;-57
2021/11/15 02:12:10;;;;;;;3.28;1.42;;;;;;;;;;4991415;23;20030;-60
2021/11/15 02:14:12;;;;;;;5.88;1.60;;;;;;;;;;5101041;23;20377;-58
2021/11/15 02:16:15;;;;;;;2.95;1.63;;;;;;;;;;5101452;23;20079;-56
2021/11/15 02:18:17;;;;;;;5.00;1.30;;;;;;;;;;5099754;23;20036;-57
2021/11/15 02:20:40;;;;;;;3.92;1.67;;;;;;;;;;5100611;23;20025;-63
2021/11/15 02:22:42;;;;;;;3.95;1.25;;;;;;;;;;5075035;23;20389;-63
2021/11/15 02:27:18;;;;;;;4.32;1.42;;;;;;;;;;5029570;23;20045;-63
2021/11/15 02:29:41;;;;;;;6.38;1.75;;;;;;;;;;5073512;23;20503;-62
2021/11/15 02:31:43;;;;;;;5.20;1.80;;;;;;;;;;5097365;23;20105;-64
2021/11/15 02:33:47;;;;;;;2.85;1.42;;;;;;;;;;5075335;23;20116;-62
2021/11/15 02:35:49;;;;;;;3.97;1.40;;;;;;;;;;5073478;23;20077;-63
2021/11/15 02:40:32;;;;;;;3.45;1.20;;;;;;;;;;5052997;23;20025;-62
2021/11/15 02:42:40;;;;;;;2.90;1.15;;;;;;;;;;5074712;23;20583;-55
2021/11/15 02:44:45;;;;;;;2.65;1.17;;;;;;;;;;5068671;23;20096;-51
2021/11/15 02:46:58;;;;;;;2.25;1.38;;;;;;;;;;5095964;23;20640;-48
2021/11/15 02:49:12;;;;;;;4.72;1.23;;;;;;;;;;5070694;23;20507;-53
2021/11/15 02:54:02;;;;;;;2.95;1.10;;;;;;;;;;5030681;23;20255;-53
2021/11/15 02:56:08;;;;;;;2.22;0.98;;;;;;;;;;5095326;23;20032;-56
2021/11/15 02:58:45;;;;;;;2.42;0.98;;;;;;;;;;5102611;23;20032;-56
2021/11/15 03:00:53;;;;;;;7.15;1.10;;;;;;;;;;4979193;23;20033;-57
2021/11/15 03:02:56;;;;;;;2.95;1.02;;;;;;;;;;4978914;23;20113;-57
2021/11/15 03:05:01;;;;;;;2.85;1.08;;;;;;;;;;5037238;23;20086;-51
2021/11/15 03:07:07;;;;;;;5.47;1.30;;;;;;;;;;5072369;23;20021;-47
2021/11/15 03:09:12;;;;;;;3.33;1.10;;;;;;;;;;5099524;23;20029;-49
2021/11/15 03:11:26;;;;;;;1.63;0.90;;;;;;;;;;5102243;23;20037;-47
2021/11/15 03:14:00;;;;;;;2.60;1.15;;;;;;;;;;5101248;23;20515;-56
2021/11/15 03:16:05;;;;;;;6.82;1.30;;;;;;;;;;4978080;23;20031;-47
2021/11/15 03:18:33;;;;;;;3.58;0.93;;;;;;;;;;5038352;23;20108;-51
2021/11/15 03:21:32;;;;;;;1.85;0.80;;;;;;;;;;5077828;23;20123;-45
2021/11/15 03:24:11;;;;;;;2.53;0.95;;;;;;;;;;5014649;23;20030;-50
2021/11/15 03:26:13;;;;;;;2.20;1.05;;;;;;;;;;5074880;23;20058;-50
2021/11/15 03:28:21;;;;;;;2.42;1.13;;;;;;;;;;5077004;23;20025;-49
2021/11/15 03:30:23;;;;;;;3.22;0.80;;;;;;;;;;5076280;23;20029;-47
2021/11/15 03:32:32;;;;;;;0.82;0.68;;;;;;;;;;5077112;23;20032;-49
2021/11/15 03:34:37;;;;;;;1.05;0.75;;;;;;;;;;5050163;23;20140;-48
2021/11/15 03:36:45;;;;;;;1.92;1.25;;;;;;;;;;5073452;23;20030;-48
2021/11/15 03:38:50;;;;;;;1.60;0.88;;;;;;;;;;5043626;23;20049;-53
2021/11/15 03:40:58;;;;;;;3.67;1.27;;;;;;;;;;5073012;23;20030;-45
2021/11/15 03:45:55;;;;;;;1.58;1.08;;;;;;;;;;5004014;23;20030;-51
2021/11/15 03:48:01;;;;;;;1.23;0.77;;;19.20;51.90;;;;;;5073054;23;20025;-51
2021/11/15 03:50:05;;;;;;;1.67;0.88;;;21.60;48.80;;;;;;5076309;23;20033;-51
2021/11/15 03:55:12;;;;;;;4.38;1.30;;;21.60;48.50;;;;;;4975864;23;20818;-51
2021/11/15 03:57:17;;;;;;;2.13;1.17;;;21.60;48.40;;;;;;5076025;23;20029;-48
2021/11/15 04:00:00;;;;;;;2.67;1.15;;;21.70;48.50;;;;;;5049014;23;20759;-52
2021/11/15 05:27:03;;;;;;;2.24;1.22;;;23.30;45.60;;;;;;4988976;22;17311576;-49
2021/11/15 05:29:22;;;;;;;;;;;23.40;45.60;;;;;;5136663;23;20232;-50
2021/11/15 05:31:44;;;;;;;3.03;1.30;;;23.40;45.50;;;;;;5136128;23;19939;-50
2021/11/15 05:33:49;;;;;;;1.67;1.00;;;23.50;45.40;;;;;;5134189;23;20021;-52
2021/11/15 05:35:57;;;;;;;3.25;1.00;;;23.50;45.40;;;;;;5133762;23;20078;-49
2021/11/15 05:38:03;;;;;;;2.25;1.17;;;23.50;45.40;;;;;;5130813;23;20097;-49
2021/11/15 05:40:12;;;;;;;1.88;1.17;;;23.60;45.40;;;;;;5129378;23;20024;-47
2021/11/15 05:42:20;;;;;;;1.55;0.90;;;23.60;45.30;;;;;;5128265;23;20063;-50
2021/11/15 05:44:29;;;;;;;1.65;1.02;;;23.70;45.50;;;;;;5125945;23;20489;-47
2021/11/15 05:46:37;;;;;;;1.77;0.88;;;23.70;45.40;;;;;;5125781;23;20397;-53
2021/11/15 05:48:40;;;;;;;3.35;1.10;;;23.80;45.60;;;;;;5123145;23;20017;-52
2021/11/15 05:50:43;;;;;;;1.58;0.82;;;23.80;45.50;;;;;;5099179;23;20387;-51
2021/11/15 05:53:38;;;;;;;1.38;0.90;;;23.80;45.60;;;;;;5124286;23;20153;-46
2021/11/15 05:55:44;;;;;;;2.88;1.17;;;23.90;45.40;;;;;;5124809;23;20029;-48
2021/11/15 05:57:48;;;;;;;2.75;1.25;;;24.00;45.30;;;;;;5124788;23;20039;-53
2021/11/15 06:00:19;;;;;;;2.17;1.23;;;24.00;44.40;;;;;;5118175;23;20032;-51
2021/11/15 06:02:21;;;;;;;2.42;1.00;;;24.10;44.50;;;;;;5115427;23;20036;-51
2021/11/15 06:04:23;;;;;;;2.97;1.13;;;24.20;44.70;;;;;;5122410;23;20332;-49
2021/11/15 06:06:25;;;;;;;3.40;1.30;;;24.20;44.50;;;;;;5120523;23;20029;-47
2021/11/15 06:08:28;;;;;;;3.40;1.38;;;24.30;44.60;;;;;;5119488;23;20024;-44
2021/11/15 06:10:30;;;;;;;4.38;1.27;;;24.30;44.50;;;;;;5119438;23;20426;-47
2021/11/15 06:12:32;;;;;;;4.80;1.17;;;24.30;44.70;;;;;;5119129;23;20025;-47
2021/11/15 06:14:35;;;;;;;4.37;1.40;;;24.30;44.70;;;;;;5120247;23;20028;-46
2021/11/15 06:16:38;;;;;;;5.63;1.75;;;24.30;44.70;;;;;;5120731;23;20025;-43
2021/11/15 06:18:41;;;;;;;7.43;1.60;;;24.30;44.90;;;;;;5119806;23;20104;-45
2021/11/15 06:20:44;;;;;;;3.80;1.38;;;24.30;44.80;;;;;;5121128;23;20106;-48
2021/11/15 06:22:47;;;;;;;3.95;1.33;;;24.30;44.70;;;;;;5118851;23;20514;-44
2021/11/15 06:24:49;;;;;;;4.28;1.60;;;24.30;44.60;;;;;;5120668;23;20314;-47
2021/11/15 06:26:51;;;;;;;4.78;1.70;;;24.30;44.80;;;;;;5125691;23;20039;-49
2021/11/15 06:28:53;;;;;;;6.30;1.67;;;24.40;45.00;;;;;;5145335;23;20328;-46
2021/11/15 06:30:56;;;;;;;3.45;1.48;;;24.40;44.90;;;;;;5144673;23;20490;-52
2021/11/15 06:32:58;;;;;;;6.80;1.60;;;24.40;44.80;;;;;;5146468;23;20031;-45
2021/11/15 06:35:00;;;;;;;4.15;0.98;;;24.40;44.80;;;;;;5143411;23;20028;-47
2021/11/15 06:37:03;;;;;;;4.70;1.10;;;24.40;44.90;;;;;;5145005;23;20035;-48
2021/11/15 06:39:06;;;;;;;4.93;1.33;;;24.40;45.00;;;;;;5145711;23;20035;-52
2021/11/15 06:41:10;;;;;;;4.18;1.50;;;24.40;45.90;;;;;;5146396;23;20024;-49
2021/11/15 06:43:12;;;;;;;2.58;0.90;;;24.40;45.30;;;;;;5146121;23;20036;-47
2021/11/15 06:45:17;;;;;;;5.72;1.20;;;24.40;45.20;;;;;;5145067;23;20028;-44
2021/11/15 06:47:21;;;;;;;2.45;1.20;;;24.40;45.20;;;;;;5146347;23;20055;-51
2021/11/15 06:49:23;;;;;;;5.15;1.60;;;24.40;45.30;;;;;;5144563;23;20020;-53
2021/11/15 06:51:25;;;;;;;4.03;1.17;;;24.40;45.30;;;;;;5145168;23;20055;-48
2021/11/15 06:53:27;;;;;;;2.92;1.40;;;24.40;45.00;;;;;;5147301;23;20071;-45
2021/11/15 06:55:31;;;;;;;4.63;1.17;;;24.30;45.50;;;;;;5121809;23;20422;-45
2021/11/15 06:57:34;;;;;;;3.67;1.20;;;24.40;45.60;;;;;;5120308;23;20036;-49
2021/11/15 06:59:36;;;;;;;2.90;0.85;;;24.40;45.60;;;;;;5148142;23;20028;-45
2021/11/15 07:38:44;;;;;;;2.47;1.15;;;24.00;42.10;;;;;;5026983;23;2477022;-47
2021/11/15 07:40:47;;;;;;;3.73;1.30;;;24.00;42.20;;;;;;5123852;23;20025;-47
2021/11/15 07:42:49;;;;;;;3.60;1.00;;;23.90;42.40;;;;;;5125229;23;20029;-52
2021/11/15 07:44:51;;;;;;;3.33;1.10;;;23.90;43.00;;;;;;5094543;23;20071;-47
2021/11/15 07:46:53;;;;;;;1.95;1.00;;;23.90;43.50;;;;;;5064369;23;20039;-52
2021/11/15 07:48:55;;;;;;;2.40;0.90;;;23.90;43.60;;;;;;5055941;23;20474;-47
2021/11/15 07:51:02;;;;;;;2.55;0.90;;;23.90;43.90;;;;;;5064542;23;20020;-50
2021/11/15 08:00:59;;;;;;;2.95;1.10;;;23.90;44.00;;;;;;5059718;23;20024;-46
2021/11/15 08:03:02;;;;;;;2.70;0.88;;;23.90;44.60;;;;;;5063846;23;20035;-49
2021/11/15 08:05:05;;;;;;;1.08;0.75;;;23.80;43.90;;;;;;5072695;23;20433;-48
2021/11/15 08:07:07;;;;;;;2.40;1.10;;;23.80;43.90;;;;;;5057966;23;20090;-47
2021/11/15 08:09:09;;;;;;;1.80;1.00;;;23.80;43.90;;;;;;5059328;23;20020;-49
2021/11/15 08:11:11;;;;;;;1.65;0.90;;;23.80;44.00;;;;;;5045154;23;20410;-47
2021/11/15 08:13:14;;;;;;;2.00;1.00;;;23.80;43.70;;;;;;5029341;23;20494;-47
2021/11/15 08:15:18;;;;;;;1.40;0.80;;;23.80;43.70;;;;;;5023672;23;20045;-50
2021/11/15 08:17:21;;;;;;;1.83;0.95;;;23.80;43.80;;;;;;5033043;23;20979;-47
2021/11/15 08:19:23;;;;;;;2.53;0.98;;;23.80;43.90;;;;;;5041050;23;20120;-46
2021/11/15 08:21:53;;;;;;;2.05;1.05;;;23.70;43.90;;;;;;5024095;23;20040;-49
2021/11/15 08:23:59;;;;;;;2.90;1.15;;;23.70;42.90;;;;;;5058189;23;20025;-48
2021/11/15 08:26:22;;;;;;;3.22;1.25;;;23.60;42.70;;;;;;5042598;23;20211;-47
2021/11/15 08:34:38;;;;;;;1.90;0.95;;;23.50;42.80;;;;;;5086765;23;20365;-71
2021/11/15 08:36:24;;;;;;;3.28;1.10;;;23.60;43.30;;;;;;5070642;23;20184;-70
2021/11/15 08:41:38;;;;;;;2.70;0.77;;;23.50;43.30;;;;;;5048649;23;20423;-74
2021/11/15 08:43:56;;;;;;;2.78;0.90;;;23.50;43.70;;;;;;5081008;23;20040;-70
2021/11/15 08:46:00;;;;;;;2.70;0.93;;;23.50;44.00;;;;;;5088668;23;20060;-72
2021/11/15 08:48:06;;;;;;;3.17;1.02;;;23.50;44.20;;;;;;5088804;23;20480;-69
2021/11/15 08:50:10;;;;;;;1.15;0.60;;;23.50;44.40;;;;;;5092106;23;20221;-70
2021/11/15 08:52:19;;;;;;;2.03;0.85;;;23.50;44.60;;;;;;5090060;23;20028;-69
2021/11/15 09:03:16;;;;;;;6.20;1.20;;;23.60;45.10;;;;;;5086181;23;20031;-73
2021/11/15 09:05:19;;;;;;;6.00;1.05;;;23.60;45.00;;;;;;5102071;23;20359;-74
2021/11/15 09:07:22;;;;;;;4.38;0.93;;;23.60;45.00;;;;;;5091486;23;20099;-73
2021/11/15 09:09:28;;;;;;;4.10;1.33;;;23.60;45.10;;;;;;5095381;23;21054;-73
2021/11/15 09:11:30;;;;;;;4.30;1.33;;;23.60;45.00;;;;;;5090117;23;20506;-72
2021/11/15 09:13:33;;;;;;;3.97;1.05;;;23.50;45.00;;;;;;5099564;23;20373;-74
2021/11/15 09:15:36;;;;;;;1.42;1.02;;;23.50;45.00;;;;;;5098472;22;20298;-77
2021/11/15 09:17:41;;;;;;;3.03;0.90;;;23.50;45.10;;;;;;5087593;23;20047;-71
2021/11/15 09:19:44;;;;;;;4.60;1.15;;;23.50;45.40;;;;;;5102688;23;20414;-79
2021/11/15 09:21:48;;;;;;;2.60;1.10;;;23.50;45.50;;;;;;5108251;23;20028;-74
2021/11/15 09:23:50;;;;;;;1.20;0.65;;;23.50;45.60;;;;;;5091955;23;20035;-71
2021/11/15 09:34:11;;;;;;;4.57;1.23;;;23.50;45.90;;;;;;5018491;23;20033;-76
2021/11/15 09:36:16;;;;;;;4.68;0.98;;;23.50;45.80;;;;;;5032168;23;20077;-75
2021/11/15 09:38:21;;;;;;;3.90;1.00;;;23.50;45.90;;;;;;5032058;23;20033;-76
2021/11/15 09:40:25;;;;;;;3.40;0.95;;;23.50;45.90;;;;;;5018556;23;20029;-79
2021/11/15 09:42:27;;;;;;;1.60;0.93;;;23.50;45.90;;;;;;5059060;23;20025;-76
2021/11/15 09:44:33;;;;;;;3.05;0.90;;;23.50;45.90;;;;;;5047486;23;20025;-75
2021/11/15 09:46:35;;;;;;;2.58;0.80;;;23.50;45.90;;;;;;5021563;23;20160;-75
2021/11/15 09:48:43;;;;;;;16.42;1.50;;;23.50;46.10;;;;;;5023033;23;20033;-76
2021/11/15 09:50:50;;;;;;;3.65;0.80;;;23.40;46.20;;;;;;5029264;23;20116;-71
2021/11/15 09:52:53;;;;;;;6.07;1.20;;;23.40;46.30;;;;;;5028204;23;20052;-71
2021/11/15 09:54:55;;;;;;;2.42;1.15;;;23.40;46.30;;;;;;5012445;23;20073;-74
2021/11/15 09:56:58;;;;;;;1.30;0.70;;;23.40;46.20;;;;;;5013614;23;20032;-73
2021/11/15 09:59:01;;;;;;;8.53;1.13;;;23.40;46.30;;;;;;5052920;23;20029;-70
2021/11/15 10:02:16;;;;;;;2.08;0.85;;;23.40;45.60;;;;;;4148587;27;20942;-57
2021/11/15 10:04:19;;;;;;;6.90;1.20;;;23.40;46.30;;;;;;4102657;28;20952;-56
2021/11/15 10:06:21;;;;;;;4.53;0.93;;;23.40;46.40;;;;;;4116266;28;21066;-52
2021/11/15 10:08:25;;;;;;;7.32;1.45;;;23.40;46.20;;;;;;4095115;28;20071;-55
2021/11/15 10:10:47;;;;;;;2.17;0.60;;;23.40;46.40;;;;;;4113478;28;21590;-55
2021/11/15 10:13:15;;;;;;;2.33;0.95;;;23.40;46.30;;;;;;4111973;28;21757;-61
2021/11/15 10:15:18;;;;;;;7.32;1.23;;;23.40;46.40;;;;;;4104201;28;21412;-61
2021/11/15 10:17:39;;;;;;;2.85;1.00;;;23.40;46.60;;;;;;4111548;28;20182;-61
2021/11/15 10:19:44;;;;;;;1.65;0.70;;;23.40;46.60;;;;;;4082331;28;20998;-61
2021/11/15 10:21:57;;;;;;;3.20;0.90;;;23.40;46.70;;;;;;4093285;28;21243;-60
2021/11/15 10:24:04;;;;;;;3.08;0.77;;;23.40;46.60;;;;;;4112331;28;21067;-61
2021/11/15 10:26:27;;;;;;;2.83;0.77;;;23.40;46.70;;;;;;4116239;28;21316;-62
2021/11/15 10:28:31;;;;;;;1.30;0.80;;;23.40;46.60;;;;;;4128685;28;20066;-61
2021/11/15 10:30:37;;;;;;;3.58;0.85;;;23.40;46.60;;;;;;4119149;28;20048;-61
2021/11/15 10:32:43;;;;;;;2.25;0.75;;;23.40;46.70;;;;;;4087176;28;21899;-62
2021/11/15 10:35:01;;;;;;;1.17;0.80;;;23.40;46.50;;;;;;4099280;28;20048;-62
2021/11/15 10:37:11;;;;;;;1.70;0.80;;;23.40;46.50;;;;;;4112428;28;20174;-60
2021/11/15 10:39:15;;;;;;;1.25;0.73;;;23.40;46.60;;;;;;4116386;28;20311;-60
2021/11/15 10:41:21;;;;;;;1.08;0.75;;;23.40;46.50;;;;;;4108501;28;20784;-62
2021/11/15 10:43:32;;;;;;;2.13;0.75;;;23.40;46.40;;;;;;4098123;28;20048;-60
2021/11/15 10:45:38;;;;;;;3.30;0.88;;;23.40;46.40;;;;;;4100796;28;20062;-61
2021/11/15 10:47:48;;;;;;;1.48;0.85;;;23.40;46.60;;;;;;4120707;28;20048;-61
2021/11/15 10:50:01;;;;;;;1.08;0.63;;;23.40;46.50;;;;;;4122759;28;20108;-61
2021/11/15 10:52:08;;;;;;;2.67;0.80;;;23.50;46.50;;;;;;4102876;28;20077;-61
2021/11/15 10:54:44;;;;;;;0.40;0.40;;;23.50;46.60;;;;;;4104760;28;20838;-61
2021/11/15 10:56:52;;;;;;;2.33;0.70;;;23.40;46.60;;;;;;4118396;28;20056;-61
2021/11/15 10:58:55;;;;;;;2.00;0.88;;;23.50;46.60;;;;;;4112475;28;20056;-61
2021/11/15 11:00:59;;;;;;;1.67;0.95;;;23.50;46.50;;;;;;4120439;28;20079;-63
2021/11/15 11:03:09;;;;;;;2.17;0.98;;;23.50;46.50;;;;;;4100842;28;20138;-63
2021/11/15 11:05:26;;;;;;;1.63;0.88;;;23.50;46.50;;;;;;4122294;28;20043;-62
2021/11/15 11:07:28;;;;;;;3.28;0.90;;;23.50;46.50;;;;;;4102595;28;20105;-61
2021/11/15 11:09:41;;;;;;;1.30;0.88;;;23.50;46.50;;;;;;4140393;28;21619;-62
2021/11/15 11:11:44;;;;;;;3.60;1.00;;;23.50;46.40;;;;;;4115573;28;20104;-63
2021/11/15 11:13:53;;;;;;;2.85;1.08;;;23.50;46.50;;;;;;4104234;28;20566;-62
2021/11/15 11:15:56;;;;;;;1.40;0.90;;;23.50;46.50;;;;;;4095696;28;22150;-61
2021/11/15 11:18:37;;;;;;;2.30;0.80;;;23.50;46.50;;;;;;4088652;28;20041;-61
2021/11/15 11:23:34;;;;;;;1.67;0.88;;;23.50;46.40;;;;;;4105766;28;20109;-61
2021/11/15 11:25:38;;;;;;;1.88;0.80;;;23.50;46.50;;;;;;4106123;28;20194;-62
2021/11/15 11:27:40;;;;;;;2.42;0.77;;;23.50;46.50;;;;;;4107301;28;20275;-61
2021/11/15 11:29:46;;;;;;;2.83;0.77;;;23.50;46.50;;;;;;4098834;28;20063;-62
2021/11/15 11:31:54;;;;;;;1.20;0.80;;;23.50;46.50;;;;;;4107424;28;20841;-62
2021/11/15 11:33:57;;;;;;;3.08;0.60;;;23.50;46.50;;;;;;4090026;28;20072;-62
2021/11/15 11:36:05;;;;;;;1.30;0.90;;;23.50;46.40;;;;;;4095265;28;20995;-59
2021/11/15 11:38:07;;;;;;;1.35;0.60;;;23.50;46.40;;;;;;4105391;28;20044;-61
2021/11/15 11:40:09;;;;;;;3.00;0.80;;;23.50;46.40;;;;;;4094010;28;20063;-62
2021/11/15 11:42:14;;;;;;;1.43;0.90;;;23.50;46.40;;;;;;4105848;28;20098;-60
2021/11/15 11:44:18;;;;;;;0.98;0.63;;;23.60;46.50;;;;;;4089867;28;20661;-59
2021/11/15 11:46:22;;;;;;;;;;;23.50;46.40;;;;;;4107047;28;20182;-59
2021/11/15 11:48:26;;;;;;;0.70;0.50;;;23.50;46.40;;;;;;4083309;28;20051;-62
2021/11/15 11:50:30;;;;;;;3.97;0.95;;;23.50;46.40;;;;;;4090492;28;20057;-60
2021/11/15 11:52:39;;;;;;;3.50;0.90;;;23.50;46.40;;;;;;4095148;28;20052;-61
2021/11/15 11:54:47;;;;;;;2.58;0.82;;;23.50;46.40;;;;;;4099453;28;21451;-61
2021/11/15 11:57:13;;;;;;;1.98;0.90;;;23.50;46.40;;;;;;4107622;28;20657;-61
2021/11/15 11:59:19;;;;;;;2.67;0.80;;;23.50;46.50;;;;;;4088310;28;20809;-59
2021/11/15 12:01:24;;;;;;;2.78;0.60;;;23.60;46.50;;;;;;4107801;28;20167;-59
2021/11/15 12:03:28;;;;;;;1.17;0.60;;;23.50;46.50;;;;;;4101326;28;20140;-59
2021/11/15 12:05:31;;;;;;;1.15;0.63;;;23.50;46.50;;;;;;4099005;28;21154;-60
2021/11/15 12:07:36;;;;;;;0.65;0.50;;;23.60;46.50;;;;;;4090296;28;20135;-59
2021/11/15 12:09:47;;;;;;;1.55;0.60;;;23.60;46.40;;;;;;4091379;28;20147;-59
2021/11/15 12:12:02;;;;;;;1.63;0.73;;;23.50;46.40;;;;;;4076440;28;20053;-60
2021/11/15 12:14:06;;;;;;;2.35;0.77;;;23.60;46.50;;;;;;4091549;28;20051;-61
2021/11/15 12:16:10;;;;;;;3.00;0.80;;;23.50;46.40;;;;;;4103971;28;20058;-60
2021/11/15 12:18:24;;;;;;;2.10;0.63;;;23.60;46.50;;;;;;4126734;28;21418;-60
2021/11/15 12:20:26;;;;;;;1.10;0.80;;;23.50;46.30;;;;;;4125528;28;20062;-60
2021/11/15 12:22:46;;;;;;;1.15;0.70;;;23.60;46.40;;;;;;4086711;28;20111;-59
2021/11/15 12:25:08;;;;;;;2.97;0.82;;;23.50;46.40;;;;;;4103445;28;20055;-61
2021/11/15 12:27:30;;;;;;;1.48;0.52;;;23.60;46.40;;;;;;4096294;28;20056;-61
2021/11/15 12:29:35;;;;;;;2.22;0.60;;;23.50;46.40;;;;;;4088483;28;20055;-62
2021/11/15 12:31:47;;;;;;;1.98;0.77;;;23.50;46.30;;;;;;4073262;28;20571;-62
2021/11/15 12:33:49;;;;;;;1.17;0.60;;;23.50;46.30;;;;;;4107699;28;20052;-56
2021/11/15 12:35:56;;;;;;;1.33;0.80;;;23.50;46.30;;;;;;4123499;28;20126;-59
2021/11/15 12:37:58;;;;;;;0.82;0.57;;;23.50;46.30;;;;;;4113216;28;20068;-61
2021/11/15 12:40:00;;;;;;;0.73;0.50;;;23.60;46.30;;;;;;4087933;28;20138;-61
2021/11/15 12:42:03;;;;;;;1.83;0.80;;;23.50;46.30;;;;;;4085220;28;20773;-62
2021/11/15 12:44:09;;;;;;;2.72;0.70;;;23.50;46.20;;;;;;4082862;28;20181;-61
2021/11/15 12:46:18;;;;;;;2.38;0.65;;;23.50;46.30;;;;;;4106159;28;21306;-61
2021/11/15 12:48:42;;;;;;;1.08;0.70;;;23.50;46.30;;;;;;4105418;28;20782;-63
2021/11/15 12:50:52;;;;;;;1.42;0.77;;;23.60;46.30;;;;;;4121537;28;20078;-61
2021/11/15 12:52:59;;;;;;;1.30;0.70;;;23.50;46.20;;;;;;4104788;28;21891;-62
2021/11/15 12:55:07;;;;;;;0.65;0.55;;;23.50;46.20;;;;;;4100944;28;20062;-62
2021/11/15 12:57:18;;;;;;;0.63;0.50;;;23.50;46.30;;;;;;4119656;28;20084;-62
2021/11/15 12:59:21;;;;;;;1.33;0.68;;;23.50;46.30;;;;;;4122545;28;20122;-62
2021/11/15 13:02:14;;;;;;;1.05;0.70;;;23.50;45.70;;;;;;4098950;27;20438;-62
2021/11/15 13:04:17;;;;;;;2.67;0.70;;;23.50;46.30;;;;;;4111225;28;20056;-61
2021/11/15 13:06:24;;;;;;;1.40;0.77;;;23.50;46.20;;;;;;4106363;28;20055;-59
2021/11/15 13:08:26;;;;;;;1.45;0.77;;;23.50;46.20;;;;;;4095575;28;20207;-49
2021/11/15 13:10:29;;;;;;;1.13;0.68;;;23.50;46.20;;;;;;4089802;28;20865;-48
2021/11/15 13:12:35;;;;;;;1.50;0.70;;;23.50;45.90;;;;;;4102476;28;20130;-54
2021/11/15 13:14:37;;;;;;;6.65;1.10;;;23.50;45.90;;;;;;4101845;28;20053;-58
2021/11/15 13:16:47;;;;;;;3.28;1.10;;;23.50;45.90;;;;;;4083656;28;20056;-55
2021/11/15 13:18:49;;;;;;;6.22;1.05;;;23.50;46.10;;;;;;4083874;28;20051;-54
2021/11/15 13:20:51;;;;;;;1.85;1.08;;;23.40;46.00;;;;;;4087413;28;20053;-57
2021/11/15 13:22:53;;;;;;;3.15;0.93;;;23.40;46.00;;;;;;4105328;28;20045;-51
2021/11/15 13:24:55;;;;;;;1.55;0.77;;;23.40;46.10;;;;;;4091327;28;20300;-55
2021/11/15 13:26:58;;;;;;;4.25;1.25;;;23.40;46.10;;;;;;4090491;28;20055;-57
2021/11/15 13:29:00;;;;;;;3.88;1.00;;;23.30;46.20;;;;;;4109270;28;20108;-50
2021/11/15 13:31:02;;;;;;;1.75;0.80;;;23.30;46.30;;;;;;4089824;28;21502;-55
2021/11/15 13:33:05;;;;;;;1.85;0.85;;;23.30;46.10;;;;;;4091448;28;20057;-52
2021/11/15 13:35:10;;;;;;;2.67;1.10;;;23.30;46.20;;;;;;4102295;28;21702;-53
2021/11/15 13:37:13;;;;;;;3.20;1.13;;;23.30;46.10;;;;;;4099821;28;20053;-53
2021/11/15 13:39:15;;;;;;;3.78;1.08;;;23.30;46.20;;;;;;4080454;28;20056;-49
2021/11/15 13:41:25;;;;;;;3.88;1.02;;;23.30;46.30;;;;;;4080855;28;20144;-49
2021/11/15 13:43:27;;;;;;;5.00;1.33;;;23.30;46.30;;;;;;4084112;28;20984;-52
2021/11/15 13:45:34;;;;;;;8.73;1.40;;;23.20;46.30;;;;;;4098581;28;20049;-52
2021/11/15 13:47:37;;;;;;;3.95;0.80;;;23.20;46.20;;;;;;4092074;28;21513;-47
2021/11/15 13:49:39;;;;;;;4.45;1.23;;;23.20;46.20;;;;;;4083999;28;20045;-55
2021/11/15 13:51:41;;;;;;;5.00;1.13;;;23.20;46.10;;;;;;4082993;28;20136;-55
2021/11/15 13:53:43;;;;;;;2.45;0.88;;;23.20;46.00;;;;;;4099271;28;20671;-53
2021/11/15 13:55:46;;;;;;;8.55;1.13;;;23.10;46.00;;;;;;4079844;28;20626;-49
2021/11/15 13:57:48;;;;;;;2.08;0.90;;;23.10;45.90;;;;;;4083013;28;20053;-51
2021/11/15 13:59:51;;;;;;;8.20;0.98;;;23.10;46.00;;;;;;4096186;28;20049;-49
2021/11/15 14:01:54;;;;;;;1.50;0.90;;;23.00;45.90;;;;;;4087100;28;20094;-49
2021/11/15 14:03:56;;;;;;;2.67;0.70;;;23.00;46.10;;;;;;4078004;28;20079;-52
2021/11/15 14:05:59;;;;;;;1.25;0.70;;;23.00;46.10;;;;;;4082495;28;20052;-49
2021/11/15 14:08:02;;;;;;;2.42;1.08;;;23.00;46.10;;;;;;4096923;28;20061;-50
2021/11/15 14:10:06;;;;;;;2.20;0.90;;;23.00;46.10;;;;;;4079233;28;20053;-48
2021/11/15 14:12:09;;;;;;;6.75;1.33;;;22.90;46.10;;;;;;4090200;28;20270;-49
2021/11/15 14:14:12;;;;;;;1.00;0.50;;;22.90;46.10;;;;;;4079925;28;20049;-50
2021/11/15 14:16:15;;;;;;;3.67;0.85;;;22.90;46.50;;;;;;4070098;28;20488;-46
2021/11/15 14:18:17;;;;;;;2.50;0.80;;;22.90;46.00;;;;;;4068963;28;20172;-53
2021/11/15 14:20:21;;;;;;;3.53;0.80;;;22.80;46.00;;;;;;4073805;28;20064;-50
2021/11/15 14:22:23;;;;;;;1.50;0.85;;;22.80;46.00;;;;;;4067937;28;20119;-53
2021/11/15 14:24:27;;;;;;;0.98;0.52;;;22.80;46.10;;;;;;4070686;28;20845;-48
2021/11/15 14:26:28;;;;;;;;;;;22.80;46.00;;;;;;4084701;28;20479;-49
2021/11/15 14:28:31;;;;;;;6.32;0.90;;;22.70;46.10;;;;;;4063285;28;19951;-47
2021/11/15 14:30:33;;;;;;;2.25;0.75;;;22.70;47.10;;;;;;4066938;28;20095;-52
2021/11/15 14:32:37;;;;;;;4.23;0.77;;;22.70;46.40;;;;;;4085081;28;20053;-51
2021/11/15 14:34:49;;;;;;;3.88;1.00;;;22.70;46.30;;;;;;4076276;28;21449;-52
2021/11/15 14:36:51;;;;;;;6.78;1.00;;;22.70;46.50;;;;;;4073435;28;21430;-52
2021/11/15 14:38:53;;;;;;;5.28;0.80;;;22.60;46.70;;;;;;4068072;28;20084;-48
2021/11/15 14:40:59;;;;;;;2.17;0.67;;;22.60;46.80;;;;;;4073692;28;20072;-52